Time;durP1;ratioP1;P1;durP2;ratioP2;P2;SDS_P1;SDS_P2;PMS_P1;PMS_P2;Temp;Humidity;BMP_temperature;BMP_pressure;BME280_temperature;BME280_humidity;BME280_pressure;Samples;Min_cycle;Max_cycle;Signal;HPM_P1;HPM_P2
2022/06/23 00:02:23;;;;;;;14.20;7.32;;;;;;;18.28;69.51;100338.41;5016494;28;20505;-82
2022/06/23 00:04:52;;;;;;;10.40;6.80;;;;;;;18.16;69.32;100332.84;5022424;28;20095;-84
2022/06/23 00:07:24;;;;;;;10.32;5.60;;;;;;;18.08;69.01;100357.59;5031006;28;20108;-81
2022/06/23 00:10:05;;;;;;;13.68;5.68;;;;;;;18.00;69.22;100344.25;5061759;28;20062;-83
2022/06/23 00:12:46;;;;;;;10.95;5.35;;;;;;;17.96;69.32;100340.28;5026602;28;20053;-83
2022/06/23 00:15:40;;;;;;;13.07;5.65;;;;;;;18.11;68.87;100349.00;5046330;28;20044;-84
2022/06/23 00:18:25;;;;;;;;;;;;;;;;;;;;;
2022/06/23 00:21:20;;;;;;;;;;;;;;;;;;;;;
2022/06/23 00:24:07;;;;;;;;;;;;;;;;;;;;;
2022/06/23 00:26:33;;;;;;;10.63;5.22;;;;;;;17.67;70.66;100328.88;5045368;28;20051;-85
2022/06/23 00:29:07;;;;;;;8.48;5.20;;;;;;;17.72;70.49;100312.75;5029180;28;20053;-83
2022/06/23 00:31:45;;;;;;;9.93;5.20;;;;;;;17.64;70.76;100332.88;5047286;28;20045;-83
2022/06/23 00:34:18;;;;;;;11.23;5.28;;;;;;;17.67;70.50;100328.88;5035509;28;20033;-83
2022/06/23 00:36:49;;;;;;;10.48;5.05;;;;;;;17.75;69.00;100330.50;5040840;28;20037;-83
2022/06/23 00:39:42;;;;;;;10.50;5.63;;;;;;;17.72;68.18;100323.63;5030285;28;20045;-87
2022/06/23 00:42:21;;;;;;;10.10;5.38;;;;;;;17.47;67.78;100296.38;5046362;28;20496;-83
2022/06/23 00:45:27;;;;;;;10.57;5.55;;;;;;;17.57;67.18;100310.31;5043124;28;20128;-83
2022/06/23 00:48:17;;;;;;;12.20;6.13;;;;;;;17.51;66.62;100320.19;5059177;28;20033;-83
2022/06/23 00:51:08;;;;;;;15.13;5.78;;;;;;;17.60;67.13;100326.19;5051516;28;20037;-83
2022/06/23 00:53:53;;;;;;;10.20;5.50;;;;;;;17.57;67.71;100331.22;5033607;28;20048;-83
2022/06/23 00:56:50;;;;;;;15.68;6.53;;;;;;;17.64;66.04;100329.31;5047597;28;20041;-84
2022/06/23 00:59:26;;;;;;;10.52;6.50;;;;;;;17.54;65.54;100328.97;5017860;28;20101;-81
2022/06/23 01:02:05;;;;;;;13.65;7.35;;;;;;;17.46;65.80;100322.69;5027936;28;20067;-82
2022/06/23 01:04:51;;;;;;;10.65;6.68;;;;;;;17.47;65.06;100316.22;5067074;28;20119;-81
2022/06/23 01:07:39;;;;;;;18.10;6.97;;;;;;;17.51;65.32;100322.03;5057652;28;20056;-83
2022/06/23 01:10:37;;;;;;;13.60;6.53;;;;;;;17.40;65.21;100326.28;5031877;28;20115;-83
2022/06/23 01:13:31;;;;;;;9.27;5.97;;;;;;;17.38;65.53;100322.94;5046243;28;20044;-82
2022/06/23 01:16:25;;;;;;;;;;;;;;;;;;;;;
2022/06/23 01:19:18;;;;;;;18.83;6.20;;;;;;;17.43;64.81;100319.56;5054419;28;20047;-83
2022/06/23 01:21:57;;;;;;;;;;;;;;;;;;;;;
2022/06/23 01:24:34;;;;;;;17.15;6.80;;;;;;;17.37;63.90;100337.59;5000209;28;20490;-83
2022/06/23 01:27:45;;;;;;;14.65;7.05;;;;;;;17.45;64.01;100356.34;5034702;28;20113;-82
2022/06/23 01:30:13;;;;;;;17.35;7.28;;;;;;;17.43;63.84;100357.63;5035880;28;20048;-84
2022/06/23 01:32:48;;;;;;;16.05;7.05;;;;;;;17.31;63.52;100322.13;5049228;28;20523;-84
2022/06/23 01:35:51;;;;;;;11.70;7.00;;;;;;;17.33;63.05;100339.03;5031996;28;20411;-85
2022/06/23 01:38:58;;;;;;;11.48;6.88;;;;;;;17.39;62.80;100349.03;5046283;28;20884;-84
2022/06/23 01:41:58;;;;;;;21.70;7.25;;;;;;;17.36;62.53;100362.25;5044793;28;20429;-82
2022/06/23 01:44:51;;;;;;;14.02;5.45;;;;;;;17.36;59.28;100365.78;5048089;28;20044;-83
2022/06/23 01:47:27;;;;;;;18.75;6.70;;;;;;;17.28;61.08;100368.75;5069554;28;20044;-84
2022/06/23 01:50:16;;;;;;;12.18;7.72;;;;;;;17.24;61.19;100381.06;5047412;28;20529;-84
2022/06/23 01:52:52;;;;;;;12.43;6.10;;;;;;;17.19;60.85;100373.56;5045815;28;20075;-83
2022/06/23 01:55:24;;;;;;;17.08;6.30;;;;;;;17.26;60.46;100387.97;5036526;28;20037;-86
2022/06/23 01:58:29;;;;;;;12.90;5.90;;;;;;;17.20;60.01;100396.13;5046712;28;20048;-83
2022/06/23 02:01:00;;;;;;;17.27;6.13;;;;;;;17.07;58.63;100376.06;5023110;28;20055;-82
2022/06/23 02:03:34;;;;;;;13.25;5.22;;;;;;;17.14;58.29;100383.38;5057349;28;20179;-83
2022/06/23 02:06:20;;;;;;;10.35;5.10;;;;;;;17.09;57.70;100379.44;5067686;28;20051;-83
2022/06/23 02:09:09;;;;;;;8.55;4.90;;;;;;;17.24;57.88;100395.47;5050787;28;20495;-82
2022/06/23 02:11:45;;;;;;;17.45;8.38;;;;;;;17.12;59.38;100388.19;5039330;28;20041;-83
2022/06/23 02:14:35;;;;;;;25.42;16.50;;;;;;;17.30;58.67;100394.66;5044667;28;20051;-82
2022/06/23 02:17:22;;;;;;;27.73;16.77;;;;;;;17.29;59.32;100395.69;5037542;28;20041;-83
2022/06/23 02:20:29;;;;;;;35.00;18.13;;;;;;;17.27;59.76;100396.94;5055078;28;20024;-82
2022/06/23 02:23:21;;;;;;;37.55;19.45;;;;;;;17.25;59.87;100393.59;5064941;28;20044;-82
2022/06/23 02:26:12;;;;;;;28.50;17.45;;;;;;;17.22;59.74;100391.31;5041196;28;20037;-86
2022/06/23 02:28:51;;;;;;;27.50;16.25;;;;;;;17.08;59.84;100395.91;5065573;28;20109;-81
2022/06/23 02:31:19;;;;;;;25.65;12.52;;;;;;;17.15;59.97;100399.47;5051701;28;20036;-82
2022/06/23 02:34:28;;;;;;;18.95;10.40;;;;;;;17.07;60.83;100386.94;5065357;28;20044;-81
2022/06/23 02:37:41;;;;;;;17.02;9.38;;;;;;;17.02;60.68;100384.03;5024383;28;20041;-82
2022/06/23 02:40:35;;;;;;;15.20;7.25;;;;;;;17.00;60.86;100391.53;5068636;28;20052;-81
2022/06/23 02:43:19;;;;;;;14.50;7.18;;;;;;;16.93;61.74;100369.00;5025524;28;20041;-83
2022/06/23 02:46:45;;;;;;;;;;;;;;;;;;;;;
2022/06/23 02:50:05;;;;;;;12.55;6.85;;;;;;;17.07;61.24;100381.50;5061389;28;20085;-82
2022/06/23 02:53:10;;;;;;;12.77;6.82;;;;;;;17.15;61.65;100395.91;5019410;28;20139;-82
2022/06/23 02:55:55;;;;;;;13.63;6.25;;;;;;;17.00;61.54;100366.28;5044585;28;20032;-83
2022/06/23 02:58:55;;;;;;;;;;;;;;;;;;;;;
2022/06/23 03:01:26;;;;;;;12.98;5.82;;;;;;;17.16;62.93;100397.56;5051159;28;20036;-83
2022/06/23 03:04:23;;;;;;;;;;;;;;;;;;;;;
2022/06/23 03:07:01;;;;;;;10.57;5.90;;;;;;;17.10;64.30;100372.09;5057781;28;20042;-82
2022/06/23 03:09:42;;;;;;;9.02;5.95;;;;;;;17.11;64.54;100372.94;5036593;28;20040;-81
2022/06/23 03:12:26;;;;;;;;;;;;;;;;;;;;;
2022/06/23 03:15:05;;;;;;;;;;;;;;;;;;;;;
2022/06/23 03:17:57;;;;;;;12.15;5.88;;;;;;;17.46;61.29;100401.50;5044405;28;20403;-83
2022/06/23 03:20:34;;;;;;;10.60;5.20;;;;;;;17.51;61.57;100399.00;5069416;28;20033;-82
2022/06/23 03:23:27;;;;;;;10.27;5.50;;;;;;;17.33;62.80;100398.81;5076678;28;20134;-82
2022/06/23 03:26:34;;;;;;;12.45;6.13;;;;;;;17.48;63.16;100409.44;5027357;28;20042;-84
2022/06/23 03:29:10;;;;;;;13.45;7.00;;;;;;;17.35;64.02;100404.88;5049451;28;20048;-82
2022/06/23 03:31:54;;;;;;;12.15;6.45;;;;;;;17.44;63.89;100400.03;5037936;28;20036;-83
2022/06/23 03:34:54;;;;;;;11.85;6.25;;;;;;;17.70;63.35;100427.19;5047543;28;20493;-82
2022/06/23 03:37:34;;;;;;;12.90;5.97;;;;;;;17.65;63.14;100420.69;5067191;28;20108;-85
2022/06/23 03:43:01;;;;;;;10.73;5.57;;;;;;;17.88;61.20;100448.25;5052122;28;20079;-83
2022/06/23 03:45:29;;;;;;;11.32;5.75;;;;;;;18.01;61.15;100447.38;5057995;28;20051;-83
2022/06/23 03:48:18;;;;;;;14.75;5.65;;;;;;;18.05;60.64;100445.91;5033466;28;20093;-83
2022/06/23 03:51:12;;;;;;;18.67;6.38;;;;;;;17.86;61.66;100434.06;5053623;28;20040;-85
2022/06/23 03:54:00;;;;;;;17.88;11.90;;;;;;;18.00;61.52;100428.56;5046654;28;20561;-83
2022/06/23 03:56:30;;;;;;;15.43;6.55;;;;;;;18.23;60.58;100434.31;5051492;28;20045;-82
2022/06/23 03:59:01;;;;;;;13.52;6.35;;;;;;;18.32;60.56;100433.00;5034445;28;20047;-83
2022/06/23 04:02:00;;;;;;;17.75;7.13;;;;;;;18.51;60.08;100447.56;5050519;28;20049;-82
2022/06/23 04:04:43;;;;;;;21.25;7.70;;;;;;;18.88;58.23;100457.84;5046836;28;20488;-82
2022/06/23 04:07:27;;;;;;;13.60;6.65;;;;;;;19.07;55.51;100461.47;5033005;28;20041;-84
2022/06/23 04:10:03;;;;;;;15.10;5.95;;;;;;;19.28;54.83;100441.16;5061209;28;20510;-85
2022/06/23 04:12:30;;;;;;;;;;;;;;;19.43;52.92;100455.25;5033998;28;20082;-81
2022/06/23 04:15:08;;;;;;;16.08;6.53;;;;;;;19.76;51.96;100449.53;5043757;28;19962;-87
2022/06/23 04:17:59;;;;;;;16.77;6.82;;;;;;;20.16;51.92;100461.88;5035909;28;20041;-82
2022/06/23 04:20:40;;;;;;;11.20;6.63;;;;;;;20.39;50.56;100453.81;5021207;28;20037;-84
2022/06/23 04:23:22;;;;;;;17.92;6.00;;;;;;;20.71;49.65;100464.50;5057375;28;20036;-84
2022/06/23 04:26:01;;;;;;;22.75;10.45;;;;;;;21.09;48.44;100457.81;5067082;28;20037;-83
2022/06/23 04:28:41;;;;;;;16.63;7.90;;;;;;;21.46;48.32;100453.00;5064334;28;20037;-83
2022/06/23 04:31:16;;;;;;;22.05;7.60;;;;;;;21.73;47.96;100452.53;5062787;28;20039;-82
2022/06/23 04:33:48;;;;;;;22.20;6.55;;;;;;;21.96;46.58;100446.19;5049324;28;20111;-82
2022/06/23 04:36:49;;;;;;;22.85;6.38;;;;;;;22.31;45.28;100442.53;5019751;28;20081;-83
2022/06/23 04:39:41;;;;;;;17.33;4.97;;;;;;;22.69;43.53;100452.84;5014917;28;20057;-84
2022/06/23 04:42:13;;;;;;;16.95;5.90;;;;;;;23.02;44.02;100447.69;5026802;28;20041;-82
2022/06/23 04:44:47;;;;;;;18.20;5.93;;;;;;;23.36;43.28;100443.84;5006113;28;20041;-81
2022/06/23 04:47:14;;;;;;;15.77;5.90;;;;;;;23.86;43.14;100447.63;5008452;28;20064;-81
2022/06/23 04:49:44;;;;;;;15.30;5.38;;;;;;;24.16;42.37;100432.59;5005860;28;20203;-82
2022/06/23 04:52:13;;;;;;;15.93;5.05;;;;;;;24.56;41.13;100437.75;4991232;28;20138;-82
2022/06/23 04:55:19;;;;;;;14.98;4.72;;;;;;;24.89;39.99;100444.13;5007772;28;20037;-81
2022/06/23 04:57:59;;;;;;;11.73;4.15;;;;;;;25.20;38.59;100449.91;5022813;28;20052;-81
2022/06/23 05:00:29;;;;;;;10.98;4.35;;;;;;;25.34;37.66;100442.84;5019602;28;20034;-81
2022/06/23 05:03:28;;;;;;;13.88;4.00;;;;;;;25.60;36.68;100437.50;5013232;28;20069;-85
2022/06/23 05:05:59;;;;;;;7.45;3.40;;;;;;;25.87;36.01;100437.38;5002496;28;20056;-81
2022/06/23 05:08:31;;;;;;;8.63;3.78;;;;;;;26.17;35.58;100442.19;4998558;28;20057;-81
2022/06/23 05:11:20;;;;;;;7.22;3.03;;;;;;;26.40;33.69;100451.09;5009234;28;20176;-83
2022/06/23 05:14:03;;;;;;;6.60;2.90;;;;;;;26.47;32.79;100446.97;5011299;28;20052;-82
2022/06/23 05:16:40;;;;;;;25.30;14.65;;;;;;;26.65;33.16;100459.47;5039854;28;20125;-82
2022/06/23 05:19:12;;;;;;;15.55;4.95;;;;;;;26.71;33.27;100463.91;5010798;28;20107;-83
2022/06/23 05:21:51;;;;;;;9.90;3.47;;;;;;;26.85;33.40;100457.81;5022352;28;20044;-82
2022/06/23 05:24:27;;;;;;;9.93;3.30;;;;;;;26.85;33.19;100453.13;5017752;28;20041;-84
2022/06/23 05:26:57;;;;;;;9.57;4.18;;;;;;;27.09;32.77;100458.97;4990123;28;20042;-82
2022/06/23 05:29:36;;;;;;;15.75;6.03;;;;;;;26.87;31.90;100458.38;5009116;28;20134;-80
2022/06/23 05:32:33;;;;;;;14.57;4.95;;;;;;;26.90;35.03;100466.09;5004092;28;20072;-83
2022/06/23 05:35:27;;;;;;;12.75;5.00;;;;;;;27.13;33.50;100464.72;5049433;28;20056;-82
2022/06/23 05:38:04;;;;;;;17.25;3.63;;;;;;;27.19;30.21;100460.06;5044235;28;20037;-79
2022/06/23 05:40:35;;;;;;;5.30;2.15;;;;;;;26.99;29.67;100475.50;5065285;28;20059;-80
2022/06/23 05:43:03;;;;;;;11.70;2.25;;;;;;;27.12;28.88;100472.19;5063077;28;20032;-80
2022/06/23 05:45:43;;;;;;;8.65;2.28;;;;;;;27.31;28.29;100468.91;5046343;28;20037;-81
2022/06/23 05:48:16;;;;;;;6.97;1.60;;;;;;;27.28;26.40;100470.28;5033908;28;20056;-80
2022/06/23 05:51:20;;;;;;;9.27;1.70;;;;;;;27.36;26.64;100477.19;5046597;28;20095;-79
2022/06/23 05:54:11;;;;;;;2.42;1.50;;;;;;;27.10;26.84;100476.34;5028321;28;20079;-82
2022/06/23 05:56:43;;;;;;;7.22;1.90;;;;;;;27.33;26.60;100472.22;5046163;28;20185;-80
2022/06/23 05:59:29;;;;;;;5.78;1.90;;;;;;;27.61;26.51;100465.28;5059992;28;20038;-82
2022/06/23 06:02:18;;;;;;;9.15;1.90;;;;;;;27.83;26.33;100469.63;5068986;28;20046;-84
2022/06/23 06:04:51;;;;;;;7.03;2.08;;;;;;;28.25;26.01;100483.03;5028397;28;20059;-82
2022/06/23 06:07:25;;;;;;;6.05;1.55;;;;;;;28.60;26.27;100476.53;5051463;28;20033;-82
2022/06/23 06:09:52;;;;;;;4.25;1.80;;;;;;;28.78;25.11;100483.34;5050385;28;20044;-82
2022/06/23 06:12:28;;;;;;;14.85;1.80;;;;;;;29.09;24.33;100493.41;5032521;28;20156;-80
2022/06/23 06:15:15;;;;;;;12.98;2.08;;;;;;;29.42;23.40;100492.53;5040284;28;20051;-79
2022/06/23 06:17:42;;;;;;;7.80;1.38;;;;;;;29.24;23.18;100499.63;5048486;28;20029;-82
2022/06/23 06:20:13;;;;;;;7.72;1.30;;;;;;;29.23;24.11;100500.75;5022701;28;20047;-81
2022/06/23 06:23:32;;;;;;;5.93;1.40;;;;;;;29.47;23.74;100511.06;5048210;28;20024;-82
2022/06/23 06:26:00;;;;;;;2.78;1.33;;;;;;;29.49;23.17;100500.50;4981709;28;20317;-82
2022/06/23 06:28:31;;;;;;;4.35;1.45;;;;;;;29.81;23.10;100510.22;5022483;28;20048;-80
2022/06/23 06:31:33;;;;;;;3.40;1.40;;;;;;;29.88;22.18;100505.16;5054407;28;20435;-84
2022/06/23 06:34:01;;;;;;;4.60;2.08;;;;;;;30.13;22.45;100497.63;5051704;28;20058;-81
2022/06/23 06:36:42;;;;;;;;;;;;;;;;;;;;;
2022/06/23 06:39:28;;;;;;;7.05;1.13;;;;;;;30.07;21.89;100477.50;5057860;28;20039;-86
2022/06/23 06:42:08;;;;;;;3.42;1.35;;;;;;;29.83;22.75;100502.44;5062914;28;20044;-84
2022/06/23 06:44:41;;;;;;;7.70;2.22;;;;;;;29.72;25.21;100507.25;5065521;28;20040;-86
2022/06/23 06:47:11;;;;;;;6.38;1.90;;;;;;;29.25;26.16;100487.44;5027375;28;20115;-85
2022/06/23 06:49:43;;;;;;;5.05;1.90;;;;;;;29.01;27.36;100489.28;5067360;28;20055;-84
2022/06/23 06:52:12;;;;;;;6.25;1.75;;;;;;;28.78;27.39;100497.16;5069179;28;20110;-86
2022/06/23 06:55:10;;;;;;;;;;;;;;;;;;;;;
2022/06/23 06:57:43;;;;;;;6.47;1.50;;;;;;;28.09;28.26;100484.22;5078919;28;20407;-86
2022/06/23 07:00:32;;;;;;;5.30;1.50;;;;;;;27.91;28.20;100488.41;5032970;28;20048;-85
2022/06/23 07:03:20;;;;;;;5.82;2.10;;;;;;;27.88;28.37;100495.34;5057066;28;20036;-86
2022/06/23 07:06:19;;;;;;;6.30;1.88;;;;;;;27.78;28.57;100503.63;5070741;28;20041;-82
2022/06/23 07:09:11;;;;;;;5.82;2.13;;;;;;;27.64;28.44;100503.38;5068080;28;20097;-84
2022/06/23 07:11:41;;;;;;;4.25;1.50;;;;;;;27.45;28.12;100505.88;5063941;28;20064;-86
2022/06/23 07:14:42;;;;;;;4.93;1.60;;;;;;;27.51;27.91;100514.97;5033749;28;20049;-91
2022/06/23 07:17:13;;;;;;;2.38;1.35;;;;;;;27.38;29.09;100507.28;5057284;28;20067;-82
2022/06/23 07:19:40;;;;;;;3.28;1.60;;;;;;;27.53;28.79;100491.53;5057961;28;20033;-82
2022/06/23 07:22:38;;;;;;;5.65;1.67;;;;;;;27.64;28.92;100502.53;5034970;28;20032;-86
2022/06/23 07:25:13;;;;;;;6.63;1.52;;;;;;;27.77;27.75;100493.69;5057244;28;20044;-87
2022/06/23 07:28:02;;;;;;;6.70;1.50;;;;;;;28.12;27.06;100503.00;5070861;28;20040;-85
2022/06/23 07:30:35;;;;;;;5.30;1.50;;;;;;;28.17;26.32;100483.66;5031420;28;20036;-84
2022/06/23 07:33:47;;;;;;;4.22;1.60;;;;;;;28.49;27.26;100493.47;5039317;28;20060;-86
2022/06/23 07:36:19;;;;;;;5.88;1.70;;;;;;;28.69;26.79;100496.13;5051521;28;20024;-87
2022/06/23 07:39:04;;;;;;;6.97;1.65;;;;;;;28.80;26.09;100497.72;5054071;28;20488;-87
2022/06/23 07:41:47;;;;;;;3.95;1.60;;;;;;;29.03;25.49;100507.25;5039296;28;20527;-86
2022/06/23 07:44:21;;;;;;;4.57;1.67;;;;;;;29.22;25.03;100503.78;5053211;28;20408;-85
2022/06/23 07:46:49;;;;;;;8.90;2.00;;;;;;;29.28;25.54;100513.72;5050095;28;20470;-87
2022/06/23 07:49:16;;;;;;;5.50;1.80;;;;;;;29.01;24.80;100508.66;5021691;28;20080;-87
2022/06/23 07:51:42;;;;;;;4.38;1.80;;;;;;;29.20;25.73;100506.03;5034975;28;20060;-92
2022/06/23 07:54:17;;;;;;;6.53;1.63;;;;;;;29.28;25.99;100507.34;5039541;28;20040;-86
2022/06/23 07:56:46;;;;;;;3.50;1.63;;;;;;;29.44;26.43;100495.03;5033689;28;20033;-84
2022/06/23 07:59:15;;;;;;;6.40;1.67;;;;;;;29.71;26.10;100510.31;5051902;28;20428;-85
2022/06/23 08:01:58;;;;;;;4.55;1.40;;;;;;;30.03;24.55;100513.28;5040633;28;20039;-87
2022/06/23 08:04:37;;;;;;;3.40;1.70;;;;;;;30.36;24.52;100510.69;5025474;28;20097;-86
2022/06/23 08:07:05;;;;;;;5.63;1.50;;;;;;;30.77;23.88;100501.00;5041778;28;20182;-87
2022/06/23 08:09:44;;;;;;;4.70;2.00;;;;;;;30.96;23.54;100495.47;5035049;28;20120;-90
2022/06/23 08:17:57;;;;;;;4.82;1.90;;;;;;;30.47;24.03;100484.47;5071877;28;20083;-89
2022/06/23 08:20:34;;;;;;;6.47;2.10;;;;;;;30.49;24.11;100459.22;5048604;28;20051;-89
2022/06/23 08:23:19;;;;;;;5.03;1.80;;;;;;;30.55;24.25;100484.91;5030364;28;20029;-88
2022/06/23 08:26:01;;;;;;;;;;;;;;;;;;;;;
2022/06/23 08:28:41;;;;;;;3.50;1.80;;;;;;;29.58;25.89;100476.59;5053217;28;20108;-88
2022/06/23 08:31:21;;;;;;;5.90;1.58;;;;;;;29.66;25.46;100470.44;5070722;28;20054;-89
2022/06/23 08:33:50;;;;;;;4.68;1.70;;;;;;;29.88;26.49;100464.41;5041918;28;20054;-89
2022/06/23 08:36:36;;;;;;;;;;;;;;;;;;;;;
2022/06/23 08:39:25;;;;;;;5.03;1.90;;;;;;;30.29;25.22;100444.50;5047777;28;20131;-90
2022/06/23 08:42:15;;;;;;;;;;;;;;;;;;;;;
2022/06/23 08:45:01;;;;;;;;;;;;;;;;;;;;;
2022/06/23 08:48:01;;;;;;;5.25;1.90;;;;;;;29.16;27.39;100442.13;5050816;28;20135;-88
2022/06/23 08:50:58;;;;;;;;;;;;;;;;;;;;;
2022/06/23 08:53:50;;;;;;;3.60;1.90;;;;;;;30.50;25.89;100444.22;4983803;28;20125;-84
2022/06/23 08:56:54;;;;;;;4.22;1.80;;;;;;;30.44;25.47;100440.69;4997298;28;20105;-87
2022/06/23 08:59:44;;;;;;;4.07;1.70;;;;;;;30.37;25.32;100429.16;4990784;28;20038;-87
2022/06/23 09:02:30;;;;;;;3.85;2.22;;;;;;;31.13;25.08;100454.06;4962467;28;20105;-87
2022/06/23 09:05:24;;;;;;;;;;;;;;;;;;;;;
2022/06/23 09:08:08;;;;;;;;;;;;;;;;;;;;;
2022/06/23 09:10:50;;;;;;;4.57;1.60;;;;;;;31.47;24.43;100453.78;5074778;28;20104;-88
2022/06/23 09:13:34;;;;;;;5.20;2.00;;;;;;;31.80;24.73;100450.94;5052849;28;20193;-88
2022/06/23 09:16:22;;;;;;;4.32;1.70;;;;;;;31.39;24.97;100453.63;5071745;28;20112;-88
2022/06/23 09:22:39;;;;;;;5.65;1.88;;;;;;;31.36;26.07;100443.13;4981269;28;20040;-89
2022/06/23 09:25:21;;;;;;;2.85;1.60;;;;;;;31.66;25.77;100427.88;4974038;28;20371;-88
2022/06/23 09:28:18;;;;;;;;;;;;;;;;;;;;;
2022/06/23 09:31:16;;;;;;;;;;;;;;;;;;;;;
2022/06/23 09:34:15;;;;;;;2.53;1.67;;;;;;;32.78;24.03;100441.34;5044842;28;20032;-87
2022/06/23 09:37:07;;;;;;;9.13;2.28;;;;;;;32.62;23.99;100434.50;5038184;28;20067;-88
2022/06/23 09:40:16;;;;;;;6.55;1.83;;;;;;;31.84;24.88;100415.81;5080457;28;20025;-87
2022/06/23 09:43:13;;;;;;;5.13;1.90;;;;;;;31.28;26.34;100441.88;5056699;28;20066;-87
2022/06/23 09:46:12;;;;;;;;;;;;;;;;;;;;;
2022/06/23 09:48:50;;;;;;;4.07;1.70;;;;;;;31.56;26.67;100431.66;5062405;28;20496;-87
2022/06/23 09:52:04;;;;;;;;;;;;;;;;;;;;;
2022/06/23 09:54:54;;;;;;;;;;;;;;;;;;;;;
2022/06/23 09:57:44;;;;;;;5.65;1.92;;;;;;;32.94;23.96;100433.41;5060192;28;20028;-89
2022/06/23 10:00:17;;;;;;;4.80;2.00;;;;;;;32.25;25.67;100414.16;5072668;28;20024;-88
2022/06/23 10:03:23;;;;;;;3.38;1.60;;;;;;;32.37;25.92;100425.56;5048752;28;20342;-88
2022/06/23 10:05:58;;;;;;;3.60;1.50;;;;;;;30.74;28.03;100433.03;4995068;28;20516;-89
2022/06/23 10:08:40;;;;;;;7.28;1.90;;;;;;;31.49;28.00;100420.97;5054414;28;20064;-88
2022/06/23 10:11:19;;;;;;;3.20;1.70;;;;;;;31.19;27.46;100424.25;5040619;28;20555;-86
2022/06/23 10:14:22;;;;;;;8.18;2.00;;;;;;;30.37;27.88;100428.31;5059554;28;20036;-86
2022/06/23 10:16:59;;;;;;;17.45;2.85;;;;;;;30.76;27.99;100419.69;5073832;28;20039;-86
2022/06/23 10:19:39;;;;;;;5.28;1.70;;;;;;;32.11;26.45;100423.34;5045440;28;20044;-85
2022/06/23 10:22:42;;;;;;;34.67;3.10;;;;;;;32.89;25.54;100428.78;5068307;28;20077;-88
2022/06/23 10:25:23;;;;;;;5.95;1.70;;;;;;;32.25;26.80;100425.28;5076709;28;20100;-87
2022/06/23 10:28:06;;;;;;;6.30;1.80;;;;;;;31.10;27.61;100418.59;5043449;28;20396;-88
2022/06/23 10:30:47;;;;;;;3.75;1.70;;;;;;;31.15;28.38;100435.16;5045835;28;20052;-87
2022/06/23 10:33:30;;;;;;;4.95;1.92;;;;;;;31.33;28.51;100431.50;5076833;28;20082;-87
2022/06/23 10:36:14;;;;;;;3.20;1.65;;;;;;;30.33;29.86;100441.97;5040701;28;20036;-86
2022/06/23 10:38:57;;;;;;;3.65;1.60;;;;;;;30.19;29.46;100438.25;5057238;28;20459;-87
2022/06/23 10:41:37;;;;;;;3.15;1.70;;;;;;;29.23;30.58;100439.84;5035085;28;20040;-88
2022/06/23 10:44:15;;;;;;;5.47;1.90;;;;;;;28.36;32.24;100440.44;5047458;28;20110;-86
2022/06/23 10:46:42;;;;;;;3.28;2.03;;;;;;;28.03;33.19;100438.41;5073419;28;20028;-87
2022/06/23 10:49:31;;;;;;;3.72;2.00;;;;;;;28.22;33.26;100438.59;5060558;28;20047;-88
2022/06/23 10:52:03;;;;;;;4.97;2.20;;;;;;;28.01;33.59;100440.59;5060496;28;20036;-88
2022/06/23 10:54:54;;;;;;;9.13;2.30;;;;;;;28.07;33.54;100456.03;5060045;28;20129;-88
2022/06/23 10:57:27;;;;;;;5.15;1.90;;;;;;;27.69;34.49;100456.41;5053076;28;20489;-86
2022/06/23 11:00:11;;;;;;;7.00;2.17;;;;;;;27.79;34.10;100450.88;5056830;28;20029;-89
2022/06/23 11:02:52;;;;;;;8.50;1.80;;;;;;;27.75;34.45;100462.75;5064113;28;20047;-89
2022/06/23 11:05:29;;;;;;;6.55;1.92;;;;;;;27.52;34.89;100467.78;5075430;28;20103;-88
2022/06/23 11:08:08;;;;;;;2.75;1.90;;;;;;;27.49;34.30;100462.81;5077640;28;20038;-90
2022/06/23 11:10:49;;;;;;;4.25;1.80;;;;;;;27.93;34.91;100470.47;5055478;28;20040;-88
2022/06/23 11:13:29;;;;;;;4.97;1.70;;;;;;;28.39;34.46;100470.25;5076614;28;20059;-89
2022/06/23 11:16:14;;;;;;;3.70;1.70;;;;;;;28.59;33.33;100468.53;5093829;28;20455;-88
2022/06/23 11:18:48;;;;;;;7.05;1.75;;;;;;;28.52;31.87;100448.69;5080439;28;20095;-88
2022/06/23 11:21:46;;;;;;;4.22;1.63;;;;;;;28.55;32.34;100457.22;5077684;28;20031;-88
2022/06/23 11:24:55;;;;;;;4.45;1.58;;;;;;;28.09;32.58;100470.41;5046100;28;20033;-87
2022/06/23 11:27:47;;;;;;;7.80;1.80;;;;;;;27.45;33.96;100453.44;4981835;28;20031;-89
2022/06/23 11:30:37;;;;;;;6.40;1.70;;;;;;;27.48;33.77;100472.19;4947129;28;20062;-90
2022/06/23 11:33:31;;;;;;;3.10;1.60;;;;;;;27.54;33.74;100465.56;5023208;28;20093;-88
2022/06/23 11:36:12;;;;;;;4.40;1.75;;;;;;;27.58;33.36;100472.19;5054036;28;20033;-91
2022/06/23 11:39:08;;;;;;;5.60;1.80;;;;;;;27.42;34.03;100473.31;5061892;28;20029;-89
2022/06/23 11:41:54;;;;;;;4.47;2.20;;;;;;;27.65;32.36;100444.28;5081575;28;20052;-90
2022/06/23 11:44:28;;;;;;;11.80;2.35;;;;;;;27.72;32.85;100468.81;5062366;28;20043;-89
2022/06/23 11:47:01;;;;;;;12.83;2.30;;;;;;;28.05;32.89;100458.25;5035155;28;20492;-89
2022/06/23 11:49:43;;;;;;;4.35;1.85;;;;;;;28.27;31.59;100446.84;5044527;28;20048;-86
2022/06/23 11:52:27;;;;;;;7.30;2.10;;;;;;;28.28;31.64;100446.53;5032705;28;20044;-87
2022/06/23 11:55:17;;;;;;;6.23;2.47;;;;;;;28.40;31.89;100444.28;5079419;28;20114;-88
2022/06/23 11:57:57;;;;;;;4.78;1.50;;;;;;;28.68;31.02;100443.84;5058689;28;20452;-88
2022/06/23 12:00:31;;;;;;;3.63;1.70;;;;;;;28.91;30.71;100442.31;5078564;28;20059;-87
2022/06/23 12:03:46;;;;;;;2.90;1.80;;;;;;;29.41;29.14;100429.16;5063616;28;20035;-94
2022/06/23 12:06:41;;;;;;;3.22;1.65;;;;;;;29.56;29.13;100442.00;5048271;28;20077;-88
2022/06/23 12:09:23;;;;;;;4.50;1.70;;;;;;;29.62;29.43;100419.50;5065217;28;20062;-90
2022/06/23 12:11:50;;;;;;;11.25;1.90;;;;;;;29.48;29.36;100429.63;5065883;28;20040;-90
2022/06/23 12:14:18;;;;;;;3.75;2.00;;;;;;;29.42;30.31;100428.84;5048394;28;20032;-90
2022/06/23 12:17:19;;;;;;;5.18;1.90;;;;;;;29.37;30.01;100419.78;5039428;28;20040;-90
2022/06/23 12:20:05;;;;;;;5.68;1.60;;;;;;;29.39;31.04;100418.38;5055477;28;20046;-89
2022/06/23 12:22:38;;;;;;;4.90;1.73;;;;;;;28.65;33.07;100412.06;5079221;28;20161;-91
2022/06/23 12:25:10;;;;;;;6.60;1.90;;;;;;;28.67;33.40;100415.38;5076662;28;20059;-91
2022/06/23 12:27:51;;;;;;;6.75;2.05;;;;;;;28.64;34.06;100410.44;5070598;28;20063;-90
2022/06/23 12:30:18;;;;;;;3.38;1.98;;;;;;;28.31;35.06;100418.34;5071461;28;20063;-90
2022/06/23 12:32:50;;;;;;;5.03;1.95;;;;;;;27.58;36.14;100413.34;5047820;28;20075;-91
2022/06/23 12:36:00;;;;;;;2.45;1.70;;;;;;;27.58;36.46;100427.16;5078486;28;20021;-91
2022/06/23 12:38:32;;;;;;;6.38;3.30;;;;;;;27.79;35.89;100428.78;5061255;28;20052;-91
2022/06/23 12:41:01;;;;;;;4.55;2.13;;;;;;;27.28;36.83;100441.88;5059717;28;20051;-88
2022/06/23 12:43:32;;;;;;;4.93;1.77;;;;;;;27.33;37.38;100441.88;5064898;28;20104;-91
2022/06/23 12:46:18;;;;;;;4.47;2.13;;;;;;;27.06;38.79;100420.88;5065016;28;20102;-91
2022/06/23 12:49:19;;;;;;;;;;;;;;;;;;;;;
2022/06/23 12:52:38;;;;;;;;;;;;;;;;;;;;;
2022/06/23 12:55:45;;;;;;;5.07;2.70;;;;;;;26.91;39.70;100446.53;5080633;28;20115;-90
2022/06/23 12:59:09;;;;;;;5.97;2.03;;;;;;;26.52;39.99;100451.69;5074155;28;20033;-89
2022/06/23 13:02:02;;;;;;;6.78;2.28;;;;;;;26.59;40.82;100449.50;5072150;28;20123;-89
2022/06/23 13:05:23;;;;;;;;;;;;;;;;;;;;;
2022/06/23 13:08:26;;;;;;;8.05;2.20;;;;;;;26.67;40.87;100424.19;5036551;28;20056;-89
2022/06/23 13:11:14;;;;;;;;;;;;;;;;;;;;;
2022/06/23 13:14:04;;;;;;;;;;;;;;;;;;;;;
2022/06/23 13:17:12;;;;;;;;;;;;;;;;;;;;;
2022/06/23 13:20:06;;;;;;;;;;;;;;;;;;;;;
2022/06/23 13:23:02;;;;;;;;;;;;;;;;;;;;;
2022/06/23 13:26:03;;;;;;;8.80;2.65;;;;;;;27.19;41.82;100424.19;4994850;28;20050;-90
2022/06/23 13:28:46;;;;;;;8.27;2.40;;;;;;;27.26;41.92;100433.88;5052655;28;20044;-88
2022/06/23 13:32:23;;;;;;;;;;;;;;;;;;;;;
2022/06/23 13:35:26;;;;;;;4.30;2.47;;;;;;;26.65;42.36;100431.88;5081356;28;20426;-90
2022/06/23 13:38:23;;;;;;;7.28;2.10;;;;;;;26.49;42.58;100416.41;5091823;28;20068;-90
2022/06/23 13:44:47;;;;;;;4.05;2.10;;;;;;;26.62;41.46;100437.13;5019892;28;20101;-88
2022/06/23 13:47:50;;;;;;;;;;;;;;;;;;;;;
2022/06/23 13:50:33;;;;;;;;;;;;;;;;;;;;;